createdAt,value
2023-04-24T00:01:51.462Z,31.40
2023-04-24T00:03:53.386Z,30.25
2023-04-24T00:05:55.940Z,31.30
2023-04-24T00:07:57.834Z,27.83
2023-04-24T00:09:59.791Z,30.85
2023-04-24T00:12:03.756Z,32.22
2023-04-24T00:14:05.621Z,30.98
2023-04-24T00:16:07.560Z,30.35
2023-04-24T00:18:09.354Z,31.35
2023-04-24T00:20:11.920Z,30.00
2023-04-24T00:22:14.439Z,31.02
2023-04-24T00:24:16.497Z,30.17
2023-04-24T00:26:18.239Z,30.23
2023-04-24T00:28:20.059Z,31.42
2023-04-24T00:30:21.979Z,28.27
2023-04-24T00:32:23.917Z,29.13
2023-04-24T00:34:26.197Z,27.52
2023-04-24T00:36:28.200Z,30.15
2023-04-24T00:38:32.467Z,30.42
2023-04-24T00:40:34.388Z,27.48
2023-04-24T00:42:36.321Z,30.70
2023-04-24T00:44:38.710Z,28.95
2023-04-24T00:46:40.989Z,29.73
2023-04-24T00:48:43.832Z,29.88
2023-04-24T00:50:46.775Z,30.45
2023-04-24T00:52:48.816Z,30.13
2023-04-24T00:54:51.194Z,25.52
2023-04-24T00:56:53.375Z,29.10
2023-04-24T00:58:56.691Z,26.70
2023-04-24T01:00:59.931Z,26.95
2023-04-24T01:03:06.010Z,25.65
2023-04-24T01:05:09.403Z,27.55
2023-04-24T01:07:12.665Z,27.10
2023-04-24T01:09:15.768Z,28.73
2023-04-24T01:11:18.853Z,26.65
2023-04-24T01:13:22.164Z,26.67
2023-04-24T01:15:23.896Z,28.23
2023-04-24T01:17:25.697Z,24.50
2023-04-24T01:19:27.580Z,23.90
2023-04-24T01:21:32.790Z,26.73
2023-04-24T01:23:34.730Z,25.90
2023-04-24T01:25:36.974Z,22.30
2023-04-24T01:27:38.817Z,22.98
2023-04-24T01:29:41.079Z,26.17
2023-04-24T01:31:43.859Z,23.23
2023-04-24T01:33:45.895Z,25.88
2023-04-24T01:35:48.167Z,26.33
2023-04-24T01:37:50.377Z,25.73
2023-04-24T01:39:52.070Z,23.17
2023-04-24T01:41:54.885Z,23.33
2023-04-24T01:43:58.465Z,24.05
2023-04-24T01:46:00.184Z,23.35
2023-04-24T01:48:05.454Z,23.33
2023-04-24T01:50:08.302Z,22.10
2023-04-24T01:52:10.109Z,22.25
2023-04-24T01:54:12.280Z,22.52
2023-04-24T01:56:15.484Z,21.50
2023-04-24T01:58:17.609Z,23.52
2023-04-24T02:00:19.485Z,23.55
2023-04-24T02:02:22.764Z,23.63
2023-04-24T02:04:25.039Z,23.05
2023-04-24T02:06:27.142Z,23.25
2023-04-24T02:08:29.037Z,23.33
2023-04-24T02:10:31.155Z,25.67
2023-04-24T02:12:33.431Z,25.83
2023-04-24T02:14:35.372Z,25.48
2023-04-24T02:16:37.377Z,26.65
2023-04-24T02:18:39.393Z,25.35
2023-04-24T02:20:41.492Z,25.80
2023-04-24T02:22:43.362Z,30.15
2023-04-24T02:24:45.351Z,25.52
2023-04-24T02:26:47.249Z,28.90
2023-04-24T02:28:49.226Z,24.63
2023-04-24T02:30:51.713Z,28.70
2023-04-24T02:32:53.590Z,27.80
2023-04-24T02:34:55.463Z,25.33
2023-04-24T02:36:57.668Z,27.02
2023-04-24T02:38:59.701Z,25.48
2023-04-24T02:41:03.091Z,25.75
2023-04-24T02:43:05.100Z,25.45
2023-04-24T02:45:07.787Z,25.63
2023-04-24T02:47:09.914Z,25.33
2023-04-24T02:49:13.162Z,30.00
2023-04-24T02:51:15.000Z,25.52
2023-04-24T02:53:16.975Z,25.95
2023-04-24T02:55:19.091Z,24.88
2023-04-24T02:57:21.076Z,25.38
2023-04-24T02:59:23.103Z,26.27
2023-04-24T03:01:25.036Z,23.95
2023-04-24T03:03:27.272Z,26.08
2023-04-24T03:05:29.285Z,24.40
2023-04-24T03:07:32.264Z,26.65
2023-04-24T03:09:34.093Z,22.30
2023-04-24T03:11:35.957Z,25.50
2023-04-24T03:13:37.890Z,26.23
2023-04-24T03:15:42.214Z,25.00
2023-04-24T03:17:44.261Z,23.30
2023-04-24T03:19:46.367Z,23.80
2023-04-24T03:21:51.109Z,25.15
2023-04-24T03:23:53.015Z,22.75
2023-04-24T03:25:56.371Z,24.80
2023-04-24T03:27:58.298Z,25.02
2023-04-24T03:30:00.234Z,24.80
2023-04-24T03:32:02.328Z,26.88
2023-04-24T03:34:04.339Z,23.17
2023-04-24T03:36:06.504Z,22.90
2023-04-24T03:38:08.620Z,24.45
2023-04-24T03:40:10.870Z,25.73
2023-04-24T03:42:16.294Z,25.27
2023-04-24T03:44:18.235Z,23.40
2023-04-24T03:46:20.182Z,20.48
2023-04-24T03:48:22.138Z,25.20
2023-04-24T03:50:24.338Z,21.30
2023-04-24T03:52:26.175Z,22.08
2023-04-24T03:54:28.132Z,19.65
2023-04-24T03:56:30.047Z,20.77
2023-04-24T03:58:31.986Z,21.02
2023-04-24T04:00:34.615Z,21.88
2023-04-24T04:02:36.777Z,24.90
2023-04-24T04:04:39.050Z,23.77
2023-04-24T04:06:41.398Z,19.02
2023-04-24T04:08:43.356Z,19.85
2023-04-24T04:10:45.356Z,20.20
2023-04-24T04:12:47.391Z,21.63
2023-04-24T04:14:49.288Z,28.15
2023-04-24T04:16:54.004Z,24.13
2023-04-24T04:18:59.771Z,20.92
2023-04-24T04:21:02.485Z,25.23
2023-04-24T04:23:04.484Z,21.98
2023-04-24T04:25:06.811Z,22.92
2023-04-24T04:27:09.310Z,26.70
2023-04-24T04:29:11.433Z,22.70
2023-04-24T04:31:14.244Z,20.92
2023-04-24T04:33:16.150Z,20.88
2023-04-24T04:35:18.460Z,20.17
2023-04-24T04:37:20.412Z,24.80
2023-04-24T04:39:22.551Z,24.80
2023-04-24T04:41:24.889Z,22.05
2023-04-24T04:43:27.440Z,21.60
2023-04-24T04:45:29.795Z,20.48
2023-04-24T04:47:33.720Z,25.98
2023-04-24T04:49:35.793Z,22.38
2023-04-24T04:51:37.914Z,21.15
2023-04-24T04:53:39.981Z,25.80
2023-04-24T04:55:44.261Z,23.42
2023-04-24T04:57:46.621Z,23.58
2023-04-24T04:59:48.958Z,21.02
2023-04-24T05:01:50.918Z,21.15
2023-04-24T05:03:55.448Z,21.85
2023-04-24T05:06:01.219Z,20.88
2023-04-24T05:08:04.484Z,23.80
2023-04-24T05:10:08.599Z,19.17
2023-04-24T05:12:10.564Z,24.40
2023-04-24T05:14:13.876Z,22.45
2023-04-24T05:16:16.076Z,21.00
2023-04-24T05:18:18.034Z,22.20
2023-04-24T05:20:19.976Z,24.67
2023-04-24T05:22:25.332Z,21.95
2023-04-24T05:24:27.223Z,18.65
2023-04-24T05:26:29.241Z,21.42
2023-04-24T05:28:34.301Z,19.83
2023-04-24T05:30:36.287Z,23.25
2023-04-24T05:32:38.224Z,19.75
2023-04-24T05:34:40.558Z,22.17
2023-04-24T05:36:42.664Z,18.98
2023-04-24T05:38:44.819Z,17.98
2023-04-24T05:40:47.274Z,17.38
2023-04-24T05:42:49.196Z,14.70
2023-04-24T05:44:53.290Z,17.27
2023-04-24T05:46:57.136Z,14.45
2023-04-24T05:48:59.315Z,12.70
2023-04-24T05:51:01.456Z,12.82
2023-04-24T05:53:03.742Z,12.82
2023-04-24T05:55:09.528Z,9.93
2023-04-24T05:57:11.775Z,12.05
2023-04-24T05:59:13.561Z,14.48
2023-04-24T06:01:15.380Z,12.07
2023-04-24T06:03:19.967Z,9.95
2023-04-24T06:05:25.018Z,12.85
2023-04-24T06:07:28.235Z,11.80
2023-04-24T06:09:30.114Z,7.78
2023-04-24T06:11:31.903Z,12.27
2023-04-24T06:13:33.693Z,9.40
2023-04-24T06:15:35.518Z,10.25
2023-04-24T06:17:37.318Z,14.32
2023-04-24T06:19:42.018Z,7.97
2023-04-24T06:21:44.149Z,14.10
2023-04-24T06:23:47.528Z,9.73
2023-04-24T06:25:49.383Z,8.40
2023-04-24T06:27:51.155Z,7.18
2023-04-24T06:29:55.643Z,13.48
2023-04-24T06:31:57.509Z,14.10
2023-04-24T06:33:59.538Z,10.95
2023-04-24T06:36:01.542Z,7.90
2023-04-24T06:38:03.345Z,7.63
2023-04-24T06:40:08.335Z,10.02
2023-04-24T06:42:10.669Z,9.25
2023-04-24T06:44:12.518Z,11.88
2023-04-24T06:46:14.389Z,12.05
2023-04-24T06:48:16.635Z,9.48
2023-04-24T06:50:20.910Z,12.07
2023-04-24T06:52:22.846Z,8.68
2023-04-24T06:54:24.691Z,7.43
2023-04-24T06:56:27.593Z,7.47
2023-04-24T06:58:29.409Z,9.38
2023-04-24T07:00:31.222Z,11.85
2023-04-24T07:02:33.148Z,18.75
2023-04-24T07:04:35.308Z,6.20
2023-04-24T07:06:38.610Z,10.38
2023-04-24T07:08:40.629Z,6.43
2023-04-24T07:10:42.568Z,5.95
2023-04-24T07:12:44.470Z,9.80
2023-04-24T07:14:46.386Z,10.27
2023-04-24T07:16:48.290Z,6.28
2023-04-24T07:18:50.890Z,5.85
2023-04-24T07:20:52.738Z,5.05
2023-04-24T07:22:55.945Z,6.00
2023-04-24T07:24:57.974Z,6.53
2023-04-24T07:26:59.906Z,3.20
2023-04-24T07:29:04.446Z,8.23
2023-04-24T07:31:06.349Z,4.43
2023-04-24T07:33:08.486Z,8.02
2023-04-24T07:35:11.026Z,5.90
2023-04-24T07:37:13.113Z,4.88
2023-04-24T07:39:15.111Z,6.28
2023-04-24T07:41:17.008Z,7.68
2023-04-24T07:43:19.471Z,7.90
2023-04-24T07:45:21.603Z,6.63
2023-04-24T07:47:23.738Z,9.18
2023-04-24T07:49:25.804Z,6.43
2023-04-24T07:51:29.271Z,9.05
2023-04-24T07:53:31.149Z,7.88
2023-04-24T07:55:32.988Z,7.53
2023-04-24T07:57:34.913Z,10.27
2023-04-24T07:59:36.910Z,6.07
2023-04-24T08:01:39.363Z,6.95
2023-04-24T08:03:41.618Z,4.88
2023-04-24T08:05:44.138Z,4.18
2023-04-24T08:07:49.872Z,5.47
2023-04-24T08:09:51.891Z,4.80
2023-04-24T08:11:54.535Z,4.97
2023-04-24T08:13:56.654Z,5.80
2023-04-24T08:15:58.870Z,11.25
2023-04-24T08:18:00.994Z,6.07
2023-04-24T08:20:06.247Z,6.47
2023-04-24T08:22:08.396Z,6.80
2023-04-24T08:24:10.304Z,6.28
2023-04-24T08:26:15.820Z,5.88
2023-04-24T08:28:21.240Z,4.28
2023-04-24T08:30:23.467Z,11.63
2023-04-24T08:32:30.795Z,7.05
2023-04-24T08:34:32.778Z,5.88
2023-04-24T08:36:43.966Z,4.47
2023-04-24T08:38:49.061Z,7.03
2023-04-24T08:40:51.069Z,8.43
2023-04-24T08:42:57.333Z,6.72
2023-04-24T08:44:59.263Z,6.85
2023-04-24T08:47:03.128Z,8.95
2023-04-24T08:49:05.993Z,6.93
2023-04-24T08:51:09.480Z,7.35
2023-04-24T08:53:12.462Z,7.13
2023-04-24T08:55:16.036Z,6.30
2023-04-24T08:57:19.448Z,6.63
2023-04-24T08:59:23.863Z,4.20
2023-04-24T09:01:27.999Z,6.50
2023-04-24T09:03:31.189Z,5.28
2023-04-24T09:05:34.785Z,8.57
2023-04-24T09:07:41.063Z,7.15
2023-04-24T09:09:45.901Z,8.63
2023-04-24T09:11:48.217Z,6.55
2023-04-24T09:13:51.163Z,8.68
2023-04-24T09:15:53.550Z,8.30
2023-04-24T09:17:55.766Z,8.68
2023-04-24T09:19:57.724Z,4.22
2023-04-24T09:21:59.654Z,10.57
2023-04-24T09:24:04.614Z,6.28
2023-04-24T09:26:07.146Z,5.00
2023-04-24T09:28:09.048Z,10.63
2023-04-24T09:30:11.848Z,8.15
2023-04-24T09:32:23.464Z,14.25
2023-04-24T09:34:27.635Z,7.53
2023-04-24T09:36:34.513Z,5.07
2023-04-24T09:38:39.009Z,7.30
2023-04-24T09:40:41.689Z,10.52
2023-04-24T09:42:53.846Z,7.78
2023-04-24T09:45:04.378Z,8.32
2023-04-24T09:47:11.335Z,11.15
2023-04-24T09:49:17.300Z,5.80
2023-04-24T09:51:36.552Z,13.85
2023-04-24T09:53:38.625Z,8.10
2023-04-24T09:55:46.178Z,8.27
2023-04-24T09:57:56.744Z,6.65
2023-04-24T09:59:58.853Z,10.65
2023-04-24T10:02:01.712Z,9.43
2023-04-24T10:04:04.217Z,8.02
2023-04-24T10:06:10.237Z,8.98
2023-04-24T10:08:13.647Z,11.23
2023-04-24T10:10:15.979Z,9.90
2023-04-24T10:12:18.112Z,6.85
2023-04-24T10:14:23.550Z,8.70
2023-04-24T10:16:25.750Z,5.18
2023-04-24T10:18:28.439Z,9.32
2023-04-24T10:20:32.275Z,7.35
2023-04-24T10:22:34.649Z,5.85
2023-04-24T10:24:38.593Z,6.40
2023-04-24T10:26:42.891Z,7.18
2023-04-24T10:28:47.100Z,6.10
2023-04-24T10:30:53.004Z,10.80
2023-04-24T10:32:55.480Z,6.68
2023-04-24T10:34:57.603Z,6.32
2023-04-24T10:37:00.152Z,6.05
2023-04-24T10:39:05.225Z,6.78
2023-04-24T10:41:11.774Z,8.50
2023-04-24T10:43:19.065Z,9.25
2023-04-24T10:45:23.286Z,10.60
2023-04-24T10:47:26.396Z,5.93
2023-04-24T10:49:31.339Z,7.45
2023-04-24T10:51:50.226Z,8.35
2023-04-24T10:53:52.954Z,5.78
2023-04-24T10:56:05.305Z,7.15
2023-04-24T10:58:07.455Z,4.75
2023-04-24T11:00:15.373Z,5.32
2023-04-24T11:02:18.532Z,7.20
2023-04-24T11:04:31.159Z,10.63
2023-04-24T11:06:36.185Z,5.60
2023-04-24T11:08:47.284Z,3.97
2023-04-24T11:10:59.366Z,6.40
2023-04-24T11:13:03.403Z,7.00
2023-04-24T11:15:11.824Z,4.75
2023-04-24T11:17:30.303Z,6.68
2023-04-24T11:19:32.281Z,5.35
2023-04-24T11:21:42.538Z,5.10
2023-04-24T11:23:45.826Z,4.57
2023-04-24T11:26:22.329Z,5.95
2023-04-24T11:28:25.858Z,6.20
2023-04-24T11:30:30.784Z,4.03
2023-04-24T11:32:35.323Z,5.57
2023-04-24T11:34:39.985Z,6.15
2023-04-24T11:36:45.310Z,4.90
2023-04-24T11:38:48.268Z,6.03
2023-04-24T11:40:50.887Z,5.50
2023-04-24T11:42:56.767Z,9.90
2023-04-24T11:44:58.947Z,6.05
2023-04-24T11:47:03.299Z,4.97
2023-04-24T11:49:05.461Z,8.25
2023-04-24T11:51:08.092Z,6.88
2023-04-24T11:53:10.145Z,5.75
2023-04-24T11:55:20.098Z,6.30
2023-04-24T11:57:24.053Z,6.05
2023-04-24T11:59:26.130Z,5.65
2023-04-24T12:01:28.065Z,5.75
2023-04-24T12:03:30.388Z,10.07
2023-04-24T12:05:32.863Z,10.00
2023-04-24T12:07:43.919Z,5.97
2023-04-24T12:09:53.763Z,5.45
2023-04-24T12:11:58.163Z,3.78
2023-04-24T12:14:11.586Z,9.55
2023-04-24T12:16:14.092Z,3.95
2023-04-24T12:18:18.157Z,4.72
2023-04-24T12:20:26.327Z,4.35
2023-04-24T12:22:28.575Z,4.90
2023-04-24T12:24:31.361Z,6.68
2023-04-24T12:26:33.221Z,5.55
2023-04-24T12:28:38.097Z,6.22
2023-04-24T12:30:45.450Z,5.00
2023-04-24T12:32:49.252Z,7.30
2023-04-24T12:34:52.832Z,2.78
2023-04-24T12:36:54.752Z,5.57
2023-04-24T12:38:57.553Z,7.40
2023-04-24T12:41:05.286Z,7.45
2023-04-24T12:43:17.761Z,6.00
2023-04-24T12:45:20.406Z,6.75
2023-04-24T12:47:22.480Z,5.68
2023-04-24T12:49:24.652Z,5.05
2023-04-24T12:51:26.619Z,8.18
2023-04-24T12:53:30.587Z,4.95
2023-04-24T12:55:32.776Z,4.50
2023-04-24T12:57:36.006Z,5.43
2023-04-24T12:59:38.053Z,4.55
2023-04-24T13:01:40.365Z,3.90
2023-04-24T13:03:42.812Z,6.43
2023-04-24T13:05:45.347Z,4.30
2023-04-24T13:07:47.510Z,5.15
2023-04-24T13:09:51.110Z,3.67
2023-04-24T13:11:53.201Z,3.80
2023-04-24T13:13:55.973Z,5.57
2023-04-24T13:15:58.063Z,6.68
2023-04-24T13:18:01.051Z,4.47
2023-04-24T13:20:04.012Z,4.25
2023-04-24T13:22:06.862Z,4.00
2023-04-24T13:24:10.121Z,2.95
2023-04-24T13:26:12.623Z,6.88
2023-04-24T13:28:14.792Z,6.55
2023-04-24T13:30:16.913Z,7.32
2023-04-24T13:32:19.225Z,4.97
2023-04-24T13:34:21.615Z,3.55
2023-04-24T13:36:23.841Z,2.58
2023-04-24T13:38:25.983Z,2.85
2023-04-24T13:40:28.860Z,3.60
2023-04-24T13:42:31.085Z,4.53
2023-04-24T13:44:33.206Z,3.85
2023-04-24T13:46:35.452Z,6.63
2023-04-24T13:48:37.771Z,4.70
2023-04-24T13:50:39.820Z,3.35
2023-04-24T13:52:41.989Z,4.28
2023-04-24T13:54:43.998Z,3.03
2023-04-24T13:56:46.197Z,5.70
2023-04-24T13:58:48.409Z,2.75
2023-04-24T14:00:50.587Z,3.67
2023-04-24T14:02:53.018Z,3.08
2023-04-24T14:04:55.485Z,5.20
2023-04-24T14:06:57.696Z,3.63
2023-04-24T14:09:00.554Z,3.30
2023-04-24T14:11:04.413Z,6.22
2023-04-24T14:13:07.640Z,3.33
2023-04-24T14:15:11.171Z,4.30
2023-04-24T14:17:13.280Z,4.82
2023-04-24T14:19:15.425Z,7.10
2023-04-24T14:21:17.610Z,6.22
2023-04-24T14:23:19.651Z,3.22
2023-04-24T14:25:23.342Z,4.45
2023-04-24T14:27:26.619Z,3.50
2023-04-24T14:29:28.760Z,5.25
2023-04-24T14:31:31.034Z,5.00
2023-04-24T14:33:33.405Z,7.00
2023-04-24T14:35:36.388Z,6.03
2023-04-24T14:37:38.785Z,5.45
2023-04-24T14:39:41.322Z,6.97
2023-04-24T14:41:43.395Z,3.83
2023-04-24T14:43:45.695Z,4.22
2023-04-24T14:45:47.994Z,6.03
2023-04-24T14:47:50.166Z,4.25
2023-04-24T14:49:52.570Z,1.88
2023-04-24T14:51:54.765Z,3.20
2023-04-24T14:53:57.973Z,4.18
2023-04-24T14:56:00.250Z,3.50
2023-04-24T14:58:03.140Z,3.25
2023-04-24T15:00:09.762Z,3.53
2023-04-24T15:02:16.602Z,4.55
2023-04-24T15:04:21.578Z,4.72
2023-04-24T15:06:23.892Z,8.30
2023-04-24T15:08:26.369Z,4.78
2023-04-24T15:10:30.458Z,8.07
2023-04-24T15:12:32.754Z,4.55
2023-04-24T15:14:35.111Z,7.63
2023-04-24T15:16:37.783Z,7.72
2023-04-24T15:18:40.132Z,5.70
2023-04-24T15:20:42.615Z,6.88
2023-04-24T15:22:44.812Z,4.50
2023-04-24T15:24:47.027Z,3.97
2023-04-24T15:26:49.271Z,3.20
2023-04-24T15:28:53.143Z,3.33
2023-04-24T15:30:55.245Z,4.72
2023-04-24T15:32:57.467Z,6.38
2023-04-24T15:35:07.930Z,4.60
2023-04-24T15:37:11.779Z,5.18
2023-04-24T15:39:13.880Z,5.03
2023-04-24T15:41:15.932Z,5.78
2023-04-24T15:43:18.285Z,3.75
2023-04-24T15:45:20.712Z,7.20
2023-04-24T15:47:22.856Z,6.30
2023-04-24T15:49:25.001Z,4.07
2023-04-24T15:51:27.825Z,5.07
2023-04-24T15:53:29.885Z,4.43
2023-04-24T15:55:32.032Z,3.78
2023-04-24T15:57:34.166Z,3.47
2023-04-24T15:59:36.812Z,3.97
2023-04-24T16:01:39.147Z,3.17
2023-04-24T16:03:41.534Z,2.95
2023-04-24T16:05:43.751Z,3.28
2023-04-24T16:07:45.926Z,4.43
2023-04-24T16:09:48.027Z,4.95
2023-04-24T16:11:50.423Z,2.58
2023-04-24T16:13:52.806Z,3.95
2023-04-24T16:15:54.960Z,2.60
2023-04-24T16:17:57.642Z,3.05
2023-04-24T16:19:59.840Z,3.13
2023-04-24T16:22:03.476Z,2.30
2023-04-24T16:24:06.139Z,2.88
2023-04-24T16:26:08.511Z,2.47
2023-04-24T16:28:10.731Z,2.67
2023-04-24T16:30:13.491Z,2.38
2023-04-24T16:32:15.580Z,2.70
2023-04-24T16:34:17.786Z,3.35
2023-04-24T16:36:21.726Z,3.95
2023-04-24T16:38:26.699Z,3.50
2023-04-24T16:40:28.870Z,2.50
2023-04-24T16:42:30.992Z,4.35
2023-04-24T16:44:33.226Z,2.40
2023-04-24T16:46:35.525Z,2.85
2023-04-24T16:48:37.651Z,5.57
2023-04-24T16:50:39.825Z,2.63
2023-04-24T16:52:42.470Z,3.63
2023-04-24T16:54:44.649Z,4.05
2023-04-24T16:56:46.928Z,3.55
2023-04-24T16:58:49.306Z,4.43
2023-04-24T17:00:51.857Z,3.97
2023-04-24T17:02:54.229Z,4.53
2023-04-24T17:04:56.552Z,3.85
2023-04-24T17:06:58.813Z,3.22
2023-04-24T17:09:01.209Z,3.65
2023-04-24T17:11:03.510Z,4.85
2023-04-24T17:13:05.826Z,4.30
2023-04-24T17:15:08.318Z,4.25
2023-04-24T17:17:10.791Z,4.47
2023-04-24T17:19:12.992Z,3.72
2023-04-24T17:21:15.191Z,3.83
2023-04-24T17:23:17.342Z,5.13
2023-04-24T17:25:19.606Z,5.15
2023-04-24T17:27:22.427Z,4.30
2023-04-24T17:29:24.493Z,4.70
2023-04-24T17:31:26.579Z,7.72
2023-04-24T17:33:30.845Z,6.03
2023-04-24T17:35:33.038Z,9.73
2023-04-24T17:37:36.167Z,8.40
2023-04-24T17:39:38.340Z,8.55
2023-04-24T17:41:40.937Z,11.68
2023-04-24T17:43:44.350Z,7.63
2023-04-24T17:45:47.970Z,13.35
2023-04-24T17:47:51.677Z,8.15
2023-04-24T17:49:54.005Z,11.65
2023-04-24T17:51:56.248Z,5.85
2023-04-24T17:53:58.454Z,6.88
2023-04-24T17:56:03.500Z,9.80
2023-04-24T17:58:05.971Z,6.57
2023-04-24T18:00:09.592Z,7.03
2023-04-24T18:02:11.775Z,8.60
2023-04-24T18:04:15.317Z,12.52
2023-04-24T18:06:18.967Z,10.55
2023-04-24T18:08:21.122Z,18.05
2023-04-24T18:10:24.058Z,9.45
2023-04-24T18:12:26.324Z,8.82
2023-04-24T18:14:28.731Z,10.35
2023-04-24T18:16:31.095Z,12.85
2023-04-24T18:18:33.323Z,9.77
2023-04-24T18:20:35.440Z,15.55
2023-04-24T18:22:37.916Z,11.05
2023-04-24T18:24:39.949Z,10.38
2023-04-24T18:26:42.087Z,10.27
2023-04-24T18:28:44.774Z,13.25
2023-04-24T18:30:47.698Z,12.43
2023-04-24T18:32:50.920Z,12.55
2023-04-24T18:34:53.128Z,11.82
2023-04-24T18:36:55.230Z,11.45
2023-04-24T18:38:57.600Z,15.05
2023-04-24T18:40:59.756Z,10.60
2023-04-24T18:43:02.102Z,14.35
2023-04-24T18:45:05.085Z,14.98
2023-04-24T18:47:08.417Z,12.63
2023-04-24T18:49:10.647Z,17.73
2023-04-24T18:51:13.400Z,10.98
2023-04-24T18:53:18.388Z,9.48
2023-04-24T18:55:20.520Z,11.48
2023-04-24T18:57:22.725Z,14.70
2023-04-24T18:59:24.848Z,13.50
2023-04-24T19:01:27.147Z,14.93
2023-04-24T19:03:30.175Z,12.02
2023-04-24T19:05:32.458Z,12.98
2023-04-24T19:07:34.612Z,13.77
2023-04-24T19:09:36.793Z,10.18
2023-04-24T19:11:38.979Z,12.95
2023-04-24T19:13:42.101Z,10.13
2023-04-24T19:15:44.297Z,13.25
2023-04-24T19:17:48.821Z,13.15
2023-04-24T19:19:51.359Z,10.85
2023-04-24T19:21:53.755Z,10.52
2023-04-24T19:23:57.265Z,8.70
2023-04-24T19:25:59.572Z,14.73
2023-04-24T19:28:01.776Z,15.02
2023-04-24T19:30:04.956Z,11.65
2023-04-24T19:32:07.255Z,11.18
2023-04-24T19:34:09.356Z,13.68
2023-04-24T19:36:11.632Z,13.05
2023-04-24T19:38:13.916Z,11.02
2023-04-24T19:40:16.199Z,11.68
2023-04-24T19:42:23.106Z,13.82
2023-04-24T19:44:30.867Z,12.77
2023-04-24T19:46:33.497Z,14.18
2023-04-24T19:48:35.892Z,12.80
2023-04-24T19:50:38.551Z,18.20
2023-04-24T19:52:40.794Z,17.83
2023-04-24T19:54:43.231Z,16.95
2023-04-24T19:56:45.326Z,13.30
2023-04-24T19:58:47.732Z,13.18
2023-04-24T20:00:50.165Z,10.45
2023-04-24T20:02:52.500Z,14.75
2023-04-24T20:04:54.864Z,9.80
2023-04-24T20:06:57.020Z,11.90
2023-04-24T20:08:59.730Z,10.48
2023-04-24T20:11:02.050Z,14.43
2023-04-24T20:13:04.326Z,14.15
2023-04-24T20:15:07.400Z,15.10
2023-04-24T20:17:09.583Z,16.65
2023-04-24T20:19:11.731Z,12.25
2023-04-24T20:21:13.971Z,11.63
2023-04-24T20:23:16.137Z,16.45
2023-04-24T20:25:18.381Z,13.32
2023-04-24T20:27:21.079Z,16.90
2023-04-24T20:29:23.346Z,17.20
2023-04-24T20:31:25.738Z,12.05
2023-04-24T20:33:28.978Z,11.35
2023-04-24T20:35:31.124Z,14.85
2023-04-24T20:37:33.365Z,16.88
2023-04-24T20:39:35.866Z,14.25
2023-04-24T20:41:39.029Z,9.98
2023-04-24T20:43:41.305Z,11.23
2023-04-24T20:45:43.570Z,9.48
2023-04-24T20:47:46.639Z,14.38
2023-04-24T20:49:49.759Z,10.52
2023-04-24T20:51:51.874Z,14.18
2023-04-24T20:53:54.091Z,14.63
2023-04-24T20:55:56.218Z,12.73
2023-04-24T20:58:00.429Z,13.02
2023-04-24T21:00:05.011Z,16.52
2023-04-24T21:02:07.670Z,18.02
2023-04-24T21:04:10.133Z,10.88
2023-04-24T21:06:12.328Z,14.18
2023-04-24T21:08:14.606Z,14.32
2023-04-24T21:10:17.003Z,16.50
2023-04-24T21:12:19.155Z,12.63
2023-04-24T21:14:21.263Z,12.82
2023-04-24T21:16:23.411Z,12.05
2023-04-24T21:18:26.620Z,17.23
2023-04-24T21:20:28.795Z,9.30
2023-04-24T21:22:31.000Z,14.35
2023-04-24T21:24:33.099Z,9.95
2023-04-24T21:26:35.675Z,13.30
2023-04-24T21:28:37.882Z,17.48
2023-04-24T21:30:40.275Z,20.48
2023-04-24T21:32:42.704Z,15.88
2023-04-24T21:34:45.024Z,19.58
2023-04-24T21:36:48.085Z,13.23
2023-04-24T21:38:50.231Z,11.10
2023-04-24T21:40:52.450Z,9.63
2023-04-24T21:42:54.606Z,16.85
2023-04-24T21:44:56.793Z,13.65
2023-04-24T21:46:59.707Z,16.90
2023-04-24T21:49:01.915Z,14.55
2023-04-24T21:51:04.265Z,12.02
2023-04-24T21:53:06.543Z,12.10
2023-04-24T21:55:09.446Z,21.65
2023-04-24T21:57:12.468Z,17.80
2023-04-24T21:59:15.127Z,14.80
2023-04-24T22:01:17.358Z,18.35
2023-04-24T22:03:19.764Z,13.38
2023-04-24T22:05:22.507Z,12.98
2023-04-24T22:07:24.696Z,15.48
2023-04-24T22:09:27.220Z,22.02
2023-04-24T22:11:29.467Z,10.20
2023-04-24T22:13:31.695Z,14.45
2023-04-24T22:15:33.819Z,16.33
2023-04-24T22:17:37.100Z,11.30
2023-04-24T22:19:41.015Z,11.77
2023-04-24T22:21:43.342Z,15.60
2023-04-24T22:23:45.682Z,17.40
2023-04-24T22:25:48.162Z,15.30
2023-04-24T22:27:50.881Z,15.80
2023-04-24T22:29:53.655Z,14.60
2023-04-24T22:31:57.057Z,14.80
2023-04-24T22:33:59.404Z,16.02
2023-04-24T22:36:01.925Z,14.00
2023-04-24T22:38:04.213Z,10.80
2023-04-24T22:40:08.685Z,14.43
2023-04-24T22:42:11.185Z,22.50
2023-04-24T22:44:13.594Z,14.90
2023-04-24T22:46:15.912Z,14.88
2023-04-24T22:48:18.688Z,16.90
2023-04-24T22:50:21.286Z,10.60
2023-04-24T22:52:23.372Z,14.27
2023-04-24T22:54:25.412Z,11.20
2023-04-24T22:56:27.784Z,23.50
2023-04-24T22:58:29.948Z,16.17
2023-04-24T23:00:32.327Z,12.98
2023-04-24T23:02:34.544Z,16.48
2023-04-24T23:04:36.799Z,17.08
2023-04-24T23:06:38.835Z,20.15
2023-04-24T23:08:41.094Z,18.63
2023-04-24T23:10:43.341Z,20.58
2023-04-24T23:12:45.594Z,15.98
2023-04-24T23:14:47.819Z,20.08
2023-04-24T23:16:49.947Z,16.02
2023-04-24T23:18:52.365Z,13.55
2023-04-24T23:20:54.577Z,10.07
2023-04-24T23:22:56.801Z,13.02
2023-04-24T23:24:59.016Z,16.00
2023-04-24T23:27:02.203Z,13.02
2023-04-24T23:29:04.714Z,18.23
2023-04-24T23:31:06.859Z,23.63
2023-04-24T23:33:09.131Z,13.52
2023-04-24T23:35:11.871Z,15.68
2023-04-24T23:37:14.065Z,9.18
2023-04-24T23:39:16.528Z,17.10
2023-04-24T23:41:20.015Z,12.75
2023-04-24T23:43:22.091Z,11.57
2023-04-24T23:45:24.523Z,11.18
2023-04-24T23:47:26.577Z,14.52
2023-04-24T23:49:28.795Z,13.65
2023-04-24T23:51:32.727Z,11.25
2023-04-24T23:53:35.158Z,9.20
2023-04-24T23:55:37.725Z,15.63
2023-04-24T23:57:39.944Z,9.55
2023-04-24T23:59:41.964Z,21.95
